sensor_id;sensor_type;location;lat;lon;timestamp;P1;durP1;ratioP1;P2;durP2;ratioP2
14187;SDS011;7175;51.978;5.330;2022-12-18T00:00:06;75.80;;;71.20;;
14187;SDS011;7175;51.978;5.330;2022-12-18T00:02:36;76.63;;;71.93;;
14187;SDS011;7175;51.978;5.330;2022-12-18T00:05:05;77.30;;;72.50;;
14187;SDS011;7175;51.978;5.330;2022-12-18T00:07:35;79.07;;;74.23;;
14187;SDS011;7175;51.978;5.330;2022-12-18T00:10:04;80.00;;;75.10;;
14187;SDS011;7175;51.978;5.330;2022-12-18T00:12:33;76.07;;;71.30;;
14187;SDS011;7175;51.978;5.330;2022-12-18T00:15:01;76.50;;;71.70;;
14187;SDS011;7175;51.978;5.330;2022-12-18T00:17:30;80.97;;;75.87;;
14187;SDS011;7175;51.978;5.330;2022-12-18T00:19:59;76.53;;;71.63;;
14187;SDS011;7175;51.978;5.330;2022-12-18T00:22:28;80.40;;;75.40;;
14187;SDS011;7175;51.978;5.330;2022-12-18T00:24:56;79.20;;;74.20;;
14187;SDS011;7175;51.978;5.330;2022-12-18T00:27:24;76.97;;;72.17;;
14187;SDS011;7175;51.978;5.330;2022-12-18T00:29:53;77.90;;;73.00;;
14187;SDS011;7175;51.978;5.330;2022-12-18T00:32:21;77.90;;;73.00;;
14187;SDS011;7175;51.978;5.330;2022-12-18T00:34:49;81.00;;;76.00;;
14187;SDS011;7175;51.978;5.330;2022-12-18T00:37:19;83.07;;;77.97;;
14187;SDS011;7175;51.978;5.330;2022-12-18T00:39:48;82.13;;;77.03;;
14187;SDS011;7175;51.978;5.330;2022-12-18T00:42:16;82.20;;;77.10;;
14187;SDS011;7175;51.978;5.330;2022-12-18T00:45:02;84.27;;;78.97;;
14187;SDS011;7175;51.978;5.330;2022-12-18T00:47:38;80.37;;;75.37;;
14187;SDS011;7175;51.978;5.330;2022-12-18T00:50:06;79.97;;;74.87;;
14187;SDS011;7175;51.978;5.330;2022-12-18T00:52:44;78.43;;;73.53;;
14187;SDS011;7175;51.978;5.330;2022-12-18T00:55:12;80.40;;;75.30;;
14187;SDS011;7175;51.978;5.330;2022-12-18T00:57:41;75.30;;;70.50;;
14187;SDS011;7175;51.978;5.330;2022-12-18T01:00:10;76.30;;;71.50;;
14187;SDS011;7175;51.978;5.330;2022-12-18T01:02:39;79.80;;;74.80;;
14187;SDS011;7175;51.978;5.330;2022-12-18T01:05:08;79.77;;;74.83;;
14187;SDS011;7175;51.978;5.330;2022-12-18T01:07:37;79.63;;;74.70;;
14187;SDS011;7175;51.978;5.330;2022-12-18T01:10:06;79.97;;;74.97;;
14187;SDS011;7175;51.978;5.330;2022-12-18T01:12:35;81.67;;;76.57;;
14187;SDS011;7175;51.978;5.330;2022-12-18T01:15:04;79.80;;;74.77;;
14187;SDS011;7175;51.978;5.330;2022-12-18T01:17:33;84.53;;;79.27;;
14187;SDS011;7175;51.978;5.330;2022-12-18T01:20:02;87.70;;;82.07;;
14187;SDS011;7175;51.978;5.330;2022-12-18T01:22:31;87.20;;;81.80;;
14187;SDS011;7175;51.978;5.330;2022-12-18T01:25:00;87.77;;;82.37;;
14187;SDS011;7175;51.978;5.330;2022-12-18T01:27:30;90.30;;;84.80;;
14187;SDS011;7175;51.978;5.330;2022-12-18T01:29:58;90.20;;;84.70;;
14187;SDS011;7175;51.978;5.330;2022-12-18T01:32:28;93.30;;;87.23;;
14187;SDS011;7175;51.978;5.330;2022-12-18T01:34:57;93.47;;;87.77;;
14187;SDS011;7175;51.978;5.330;2022-12-18T01:37:25;94.00;;;88.20;;
14187;SDS011;7175;51.978;5.330;2022-12-18T01:39:54;97.80;;;91.63;;
14187;SDS011;7175;51.978;5.330;2022-12-18T01:42:23;91.13;;;85.63;;
14187;SDS011;7175;51.978;5.330;2022-12-18T01:44:57;95.13;;;89.47;;
14187;SDS011;7175;51.978;5.330;2022-12-18T01:47:27;96.97;;;91.17;;
14187;SDS011;7175;51.978;5.330;2022-12-18T01:49:57;97.10;;;91.30;;
14187;SDS011;7175;51.978;5.330;2022-12-18T01:52:27;97.27;;;91.27;;
14187;SDS011;7175;51.978;5.330;2022-12-18T01:54:57;95.20;;;89.60;;
14187;SDS011;7175;51.978;5.330;2022-12-18T01:57:27;92.97;;;87.37;;
14187;SDS011;7175;51.978;5.330;2022-12-18T01:59:56;96.97;;;91.27;;
14187;SDS011;7175;51.978;5.330;2022-12-18T02:02:25;94.37;;;88.80;;
14187;SDS011;7175;51.978;5.330;2022-12-18T02:04:54;92.43;;;86.93;;
14187;SDS011;7175;51.978;5.330;2022-12-18T02:07:24;94.47;;;88.97;;
14187;SDS011;7175;51.978;5.330;2022-12-18T02:09:58;94.67;;;89.17;;
14187;SDS011;7175;51.978;5.330;2022-12-18T02:12:30;97.43;;;91.63;;
14187;SDS011;7175;51.978;5.330;2022-12-18T02:15:03;94.70;;;89.20;;
14187;SDS011;7175;51.978;5.330;2022-12-18T02:17:41;97.43;;;91.73;;
14187;SDS011;7175;51.978;5.330;2022-12-18T02:20:14;91.80;;;86.40;;
14187;SDS011;7175;51.978;5.330;2022-12-18T02:22:47;93.20;;;87.70;;
14187;SDS011;7175;51.978;5.330;2022-12-18T02:25:23;91.73;;;86.33;;
14187;SDS011;7175;51.978;5.330;2022-12-18T02:27:54;92.33;;;86.83;;
14187;SDS011;7175;51.978;5.330;2022-12-18T02:30:24;96.07;;;90.17;;
14187;SDS011;7175;51.978;5.330;2022-12-18T02:32:53;93.37;;;87.47;;
14187;SDS011;7175;51.978;5.330;2022-12-18T02:35:23;92.20;;;86.73;;
14187;SDS011;7175;51.978;5.330;2022-12-18T02:37:51;93.93;;;88.43;;
14187;SDS011;7175;51.978;5.330;2022-12-18T02:40:21;94.73;;;89.23;;
14187;SDS011;7175;51.978;5.330;2022-12-18T02:42:50;95.23;;;89.73;;
14187;SDS011;7175;51.978;5.330;2022-12-18T02:45:20;97.80;;;92.10;;
14187;SDS011;7175;51.978;5.330;2022-12-18T02:47:49;96.83;;;91.13;;
14187;SDS011;7175;51.978;5.330;2022-12-18T02:50:18;98.97;;;93.27;;
14187;SDS011;7175;51.978;5.330;2022-12-18T02:52:53;98.07;;;92.47;;
14187;SDS011;7175;51.978;5.330;2022-12-18T02:55:26;96.80;;;91.20;;
14187;SDS011;7175;51.978;5.330;2022-12-18T02:57:57;97.90;;;92.37;;
14187;SDS011;7175;51.978;5.330;2022-12-18T03:00:29;95.60;;;90.10;;
14187;SDS011;7175;51.978;5.330;2022-12-18T03:02:59;96.73;;;91.23;;
14187;SDS011;7175;51.978;5.330;2022-12-18T03:05:30;96.70;;;91.20;;
14187;SDS011;7175;51.978;5.330;2022-12-18T03:08:00;96.37;;;90.87;;
14187;SDS011;7175;51.978;5.330;2022-12-18T03:10:32;95.33;;;89.87;;
14187;SDS011;7175;51.978;5.330;2022-12-18T03:13:04;94.07;;;88.67;;
14187;SDS011;7175;51.978;5.330;2022-12-18T03:15:36;94.50;;;89.07;;
14187;SDS011;7175;51.978;5.330;2022-12-18T03:18:06;95.70;;;90.20;;
14187;SDS011;7175;51.978;5.330;2022-12-18T03:20:36;94.17;;;88.87;;
14187;SDS011;7175;51.978;5.330;2022-12-18T03:23:06;94.77;;;89.37;;
14187;SDS011;7175;51.978;5.330;2022-12-18T03:25:37;97.03;;;91.53;;
14187;SDS011;7175;51.978;5.330;2022-12-18T03:28:07;95.20;;;89.80;;
14187;SDS011;7175;51.978;5.330;2022-12-18T03:30:39;95.03;;;89.63;;
14187;SDS011;7175;51.978;5.330;2022-12-18T03:33:08;96.53;;;91.10;;
14187;SDS011;7175;51.978;5.330;2022-12-18T03:35:39;95.53;;;90.13;;
14187;SDS011;7175;51.978;5.330;2022-12-18T03:38:08;97.17;;;91.67;;
14187;SDS011;7175;51.978;5.330;2022-12-18T03:40:40;97.10;;;91.60;;
14187;SDS011;7175;51.978;5.330;2022-12-18T03:43:12;94.50;;;89.10;;
14187;SDS011;7175;51.978;5.330;2022-12-18T03:45:46;94.07;;;88.67;;
14187;SDS011;7175;51.978;5.330;2022-12-18T03:48:17;93.80;;;88.50;;
14187;SDS011;7175;51.978;5.330;2022-12-18T03:50:48;93.37;;;88.07;;
14187;SDS011;7175;51.978;5.330;2022-12-18T03:53:20;92.87;;;87.67;;
14187;SDS011;7175;51.978;5.330;2022-12-18T03:55:50;93.70;;;88.50;;
14187;SDS011;7175;51.978;5.330;2022-12-18T03:58:20;86.73;;;81.83;;
14187;SDS011;7175;51.978;5.330;2022-12-18T04:00:51;91.63;;;86.53;;
14187;SDS011;7175;51.978;5.330;2022-12-18T04:03:20;90.17;;;85.17;;
14187;SDS011;7175;51.978;5.330;2022-12-18T04:05:52;90.30;;;85.30;;
14187;SDS011;7175;51.978;5.330;2022-12-18T04:08:22;88.17;;;83.27;;
14187;SDS011;7175;51.978;5.330;2022-12-18T04:10:51;89.93;;;84.93;;
14187;SDS011;7175;51.978;5.330;2022-12-18T04:13:23;87.67;;;82.77;;
14187;SDS011;7175;51.978;5.330;2022-12-18T04:15:53;87.80;;;82.90;;
14187;SDS011;7175;51.978;5.330;2022-12-18T04:18:21;83.57;;;78.87;;
14187;SDS011;7175;51.978;5.330;2022-12-18T04:20:49;85.20;;;80.50;;
14187;SDS011;7175;51.978;5.330;2022-12-18T04:23:17;84.90;;;80.10;;
14187;SDS011;7175;51.978;5.330;2022-12-18T04:25:46;83.93;;;79.13;;
14187;SDS011;7175;51.978;5.330;2022-12-18T04:28:14;82.13;;;77.53;;
14187;SDS011;7175;51.978;5.330;2022-12-18T04:30:43;80.10;;;75.57;;
14187;SDS011;7175;51.978;5.330;2022-12-18T04:33:13;79.83;;;75.33;;
14187;SDS011;7175;51.978;5.330;2022-12-18T04:35:41;78.57;;;74.17;;
14187;SDS011;7175;51.978;5.330;2022-12-18T04:38:10;79.60;;;75.20;;
14187;SDS011;7175;51.978;5.330;2022-12-18T04:40:38;79.77;;;75.33;;
14187;SDS011;7175;51.978;5.330;2022-12-18T04:43:07;78.30;;;73.90;;
14187;SDS011;7175;51.978;5.330;2022-12-18T04:45:36;77.93;;;73.63;;
14187;SDS011;7175;51.978;5.330;2022-12-18T04:48:06;79.00;;;74.60;;
14187;SDS011;7175;51.978;5.330;2022-12-18T04:50:35;75.97;;;71.73;;
14187;SDS011;7175;51.978;5.330;2022-12-18T04:53:04;78.80;;;74.30;;
14187;SDS011;7175;51.978;5.330;2022-12-18T04:55:32;78.13;;;73.73;;
14187;SDS011;7175;51.978;5.330;2022-12-18T04:58:00;76.63;;;72.33;;
14187;SDS011;7175;51.978;5.330;2022-12-18T05:00:29;73.13;;;69.03;;
14187;SDS011;7175;51.978;5.330;2022-12-18T05:02:57;73.33;;;69.23;;
14187;SDS011;7175;51.978;5.330;2022-12-18T05:05:25;74.97;;;70.77;;
14187;SDS011;7175;51.978;5.330;2022-12-18T05:07:55;74.40;;;70.20;;
14187;SDS011;7175;51.978;5.330;2022-12-18T05:10:23;74.90;;;70.47;;
14187;SDS011;7175;51.978;5.330;2022-12-18T05:12:52;71.57;;;67.57;;
14187;SDS011;7175;51.978;5.330;2022-12-18T05:15:27;71.57;;;67.57;;
14187;SDS011;7175;51.978;5.330;2022-12-18T05:17:55;71.77;;;67.77;;
14187;SDS011;7175;51.978;5.330;2022-12-18T05:20:24;71.77;;;67.67;;
14187;SDS011;7175;51.978;5.330;2022-12-18T05:22:53;72.00;;;67.90;;
14187;SDS011;7175;51.978;5.330;2022-12-18T05:25:23;71.30;;;67.30;;
14187;SDS011;7175;51.978;5.330;2022-12-18T05:27:51;71.23;;;67.23;;
14187;SDS011;7175;51.978;5.330;2022-12-18T05:30:20;69.23;;;65.23;;
14187;SDS011;7175;51.978;5.330;2022-12-18T05:32:48;67.60;;;63.70;;
14187;SDS011;7175;51.978;5.330;2022-12-18T05:35:17;67.10;;;63.20;;
14187;SDS011;7175;51.978;5.330;2022-12-18T05:37:45;70.40;;;65.90;;
14187;SDS011;7175;51.978;5.330;2022-12-18T05:40:13;66.33;;;62.47;;
14187;SDS011;7175;51.978;5.330;2022-12-18T05:42:43;68.10;;;64.10;;
14187;SDS011;7175;51.978;5.330;2022-12-18T05:45:11;66.10;;;62.30;;
14187;SDS011;7175;51.978;5.330;2022-12-18T05:47:40;64.00;;;60.30;;
14187;SDS011;7175;51.978;5.330;2022-12-18T05:50:08;64.40;;;60.70;;
14187;SDS011;7175;51.978;5.330;2022-12-18T05:52:36;65.17;;;61.27;;
14187;SDS011;7175;51.978;5.330;2022-12-18T05:55:05;62.80;;;59.20;;
14187;SDS011;7175;51.978;5.330;2022-12-18T05:57:33;62.47;;;58.87;;
14187;SDS011;7175;51.978;5.330;2022-12-18T06:00:03;61.20;;;57.60;;
14187;SDS011;7175;51.978;5.330;2022-12-18T06:02:31;63.10;;;59.50;;
14187;SDS011;7175;51.978;5.330;2022-12-18T06:05:00;61.57;;;57.97;;
14187;SDS011;7175;51.978;5.330;2022-12-18T06:07:28;60.70;;;57.20;;
14187;SDS011;7175;51.978;5.330;2022-12-18T06:09:56;61.27;;;57.70;;
14187;SDS011;7175;51.978;5.330;2022-12-18T06:12:25;63.67;;;59.80;;
14187;SDS011;7175;51.978;5.330;2022-12-18T06:14:53;64.83;;;60.93;;
14187;SDS011;7175;51.978;5.330;2022-12-18T06:17:22;62.70;;;59.10;;
14187;SDS011;7175;51.978;5.330;2022-12-18T06:19:51;62.83;;;59.23;;
14187;SDS011;7175;51.978;5.330;2022-12-18T06:22:19;62.90;;;59.30;;
14187;SDS011;7175;51.978;5.330;2022-12-18T06:24:47;61.27;;;57.67;;
14187;SDS011;7175;51.978;5.330;2022-12-18T06:27:16;61.30;;;57.80;;
14187;SDS011;7175;51.978;5.330;2022-12-18T06:29:44;61.20;;;57.70;;
14187;SDS011;7175;51.978;5.330;2022-12-18T06:32:13;61.23;;;57.73;;
14187;SDS011;7175;51.978;5.330;2022-12-18T06:34:43;61.60;;;58.10;;
14187;SDS011;7175;51.978;5.330;2022-12-18T06:37:11;64.33;;;60.53;;
14187;SDS011;7175;51.978;5.330;2022-12-18T06:39:40;60.80;;;57.30;;
14187;SDS011;7175;51.978;5.330;2022-12-18T06:42:08;59.73;;;56.23;;
14187;SDS011;7175;51.978;5.330;2022-12-18T06:44:36;59.20;;;55.80;;
14187;SDS011;7175;51.978;5.330;2022-12-18T06:47:05;59.80;;;56.30;;
14187;SDS011;7175;51.978;5.330;2022-12-18T06:49:33;62.40;;;58.70;;
14187;SDS011;7175;51.978;5.330;2022-12-18T06:52:03;58.90;;;55.50;;
14187;SDS011;7175;51.978;5.330;2022-12-18T06:54:31;61.23;;;57.53;;
14187;SDS011;7175;51.978;5.330;2022-12-18T06:56:59;57.20;;;53.80;;
14187;SDS011;7175;51.978;5.330;2022-12-18T06:59:27;57.70;;;54.30;;
14187;SDS011;7175;51.978;5.330;2022-12-18T07:01:56;57.30;;;53.90;;
14187;SDS011;7175;51.978;5.330;2022-12-18T07:04:27;57.43;;;54.03;;
14187;SDS011;7175;51.978;5.330;2022-12-18T07:06:55;58.53;;;55.13;;
14187;SDS011;7175;51.978;5.330;2022-12-18T07:09:25;58.17;;;54.77;;
14187;SDS011;7175;51.978;5.330;2022-12-18T07:11:56;58.17;;;54.77;;
14187;SDS011;7175;51.978;5.330;2022-12-18T07:14:24;58.77;;;55.37;;
14187;SDS011;7175;51.978;5.330;2022-12-18T07:16:52;60.53;;;56.83;;
14187;SDS011;7175;51.978;5.330;2022-12-18T07:19:22;58.17;;;54.77;;
14187;SDS011;7175;51.978;5.330;2022-12-18T07:21:50;54.90;;;51.50;;
14187;SDS011;7175;51.978;5.330;2022-12-18T07:24:19;56.13;;;52.63;;
14187;SDS011;7175;51.978;5.330;2022-12-18T07:26:48;56.70;;;53.30;;
14187;SDS011;7175;51.978;5.330;2022-12-18T07:29:17;58.30;;;54.80;;
14187;SDS011;7175;51.978;5.330;2022-12-18T07:31:45;56.93;;;53.47;;
14187;SDS011;7175;51.978;5.330;2022-12-18T07:34:14;58.00;;;54.50;;
14187;SDS011;7175;51.978;5.330;2022-12-18T07:36:42;57.60;;;54.20;;
14187;SDS011;7175;51.978;5.330;2022-12-18T07:39:11;57.03;;;53.63;;
14187;SDS011;7175;51.978;5.330;2022-12-18T07:41:39;57.03;;;53.63;;
14187;SDS011;7175;51.978;5.330;2022-12-18T07:44:14;57.97;;;54.50;;
14187;SDS011;7175;51.978;5.330;2022-12-18T07:46:42;56.60;;;53.20;;
14187;SDS011;7175;51.978;5.330;2022-12-18T07:49:10;57.60;;;54.10;;
14187;SDS011;7175;51.978;5.330;2022-12-18T07:51:39;56.73;;;53.23;;
14187;SDS011;7175;51.978;5.330;2022-12-18T07:54:07;55.23;;;51.63;;
14187;SDS011;7175;51.978;5.330;2022-12-18T07:56:35;56.67;;;53.17;;
14187;SDS011;7175;51.978;5.330;2022-12-18T07:59:02;58.20;;;54.50;;
14187;SDS011;7175;51.978;5.330;2022-12-18T08:01:32;57.53;;;54.03;;
14187;SDS011;7175;51.978;5.330;2022-12-18T08:04:01;57.30;;;53.80;;
14187;SDS011;7175;51.978;5.330;2022-12-18T08:06:29;54.60;;;51.20;;
14187;SDS011;7175;51.978;5.330;2022-12-18T08:08:57;56.70;;;53.03;;
14187;SDS011;7175;51.978;5.330;2022-12-18T08:11:26;59.03;;;55.10;;
14187;SDS011;7175;51.978;5.330;2022-12-18T08:13:55;55.83;;;52.40;;
14187;SDS011;7175;51.978;5.330;2022-12-18T08:16:23;56.47;;;52.97;;
14187;SDS011;7175;51.978;5.330;2022-12-18T08:18:53;55.47;;;52.07;;
14187;SDS011;7175;51.978;5.330;2022-12-18T08:21:22;54.50;;;51.10;;
14187;SDS011;7175;51.978;5.330;2022-12-18T08:23:52;54.80;;;51.40;;
14187;SDS011;7175;51.978;5.330;2022-12-18T08:26:21;54.47;;;51.07;;
14187;SDS011;7175;51.978;5.330;2022-12-18T08:28:49;54.23;;;50.83;;
14187;SDS011;7175;51.978;5.330;2022-12-18T08:31:18;56.50;;;52.90;;
14187;SDS011;7175;51.978;5.330;2022-12-18T08:33:49;55.13;;;51.70;;
14187;SDS011;7175;51.978;5.330;2022-12-18T08:36:20;57.60;;;54.00;;
14187;SDS011;7175;51.978;5.330;2022-12-18T08:38:50;56.20;;;52.70;;
14187;SDS011;7175;51.978;5.330;2022-12-18T08:41:18;61.33;;;57.10;;
14187;SDS011;7175;51.978;5.330;2022-12-18T08:43:47;59.23;;;55.60;;
14187;SDS011;7175;51.978;5.330;2022-12-18T08:46:33;57.83;;;54.23;;
14187;SDS011;7175;51.978;5.330;2022-12-18T08:49:04;56.03;;;52.53;;
14187;SDS011;7175;51.978;5.330;2022-12-18T08:51:33;56.87;;;53.27;;
14187;SDS011;7175;51.978;5.330;2022-12-18T08:54:02;56.70;;;53.20;;
14187;SDS011;7175;51.978;5.330;2022-12-18T08:56:32;56.77;;;53.27;;
14187;SDS011;7175;51.978;5.330;2022-12-18T08:59:00;53.90;;;50.53;;
14187;SDS011;7175;51.978;5.330;2022-12-18T09:01:30;53.03;;;49.73;;
14187;SDS011;7175;51.978;5.330;2022-12-18T09:04:00;50.57;;;47.27;;
14187;SDS011;7175;51.978;5.330;2022-12-18T09:06:31;50.33;;;47.13;;
14187;SDS011;7175;51.978;5.330;2022-12-18T09:09:02;47.97;;;44.87;;
14187;SDS011;7175;51.978;5.330;2022-12-18T09:11:32;46.20;;;43.20;;
14187;SDS011;7175;51.978;5.330;2022-12-18T09:14:01;44.33;;;41.43;;
14187;SDS011;7175;51.978;5.330;2022-12-18T09:16:30;43.90;;;41.00;;
14187;SDS011;7175;51.978;5.330;2022-12-18T09:19:02;44.40;;;41.50;;
14187;SDS011;7175;51.978;5.330;2022-12-18T09:21:34;43.93;;;41.03;;
14187;SDS011;7175;51.978;5.330;2022-12-18T09:24:13;42.57;;;39.67;;
14187;SDS011;7175;51.978;5.330;2022-12-18T09:26:43;41.30;;;38.60;;
14187;SDS011;7175;51.978;5.330;2022-12-18T09:29:13;37.73;;;35.13;;
14187;SDS011;7175;51.978;5.330;2022-12-18T09:31:44;36.00;;;33.50;;
14187;SDS011;7175;51.978;5.330;2022-12-18T09:34:13;36.63;;;34.13;;
14187;SDS011;7175;51.978;5.330;2022-12-18T09:36:43;35.63;;;33.23;;
14187;SDS011;7175;51.978;5.330;2022-12-18T09:39:12;36.70;;;34.20;;
14187;SDS011;7175;51.978;5.330;2022-12-18T09:41:44;35.53;;;32.93;;
14187;SDS011;7175;51.978;5.330;2022-12-18T09:44:17;33.90;;;31.50;;
14187;SDS011;7175;51.978;5.330;2022-12-18T09:46:52;34.20;;;31.80;;
14187;SDS011;7175;51.978;5.330;2022-12-18T09:49:26;31.20;;;29.00;;
14187;SDS011;7175;51.978;5.330;2022-12-18T09:51:59;30.80;;;28.60;;
14187;SDS011;7175;51.978;5.330;2022-12-18T09:54:32;30.30;;;28.10;;
14187;SDS011;7175;51.978;5.330;2022-12-18T09:57:04;29.40;;;27.30;;
14187;SDS011;7175;51.978;5.330;2022-12-18T09:59:34;29.37;;;27.27;;
14187;SDS011;7175;51.978;5.330;2022-12-18T10:02:16;30.43;;;28.17;;
14187;SDS011;7175;51.978;5.330;2022-12-18T10:04:49;30.70;;;28.50;;
14187;SDS011;7175;51.978;5.330;2022-12-18T10:07:36;28.60;;;26.40;;
14187;SDS011;7175;51.978;5.330;2022-12-18T10:10:14;28.20;;;26.10;;
14187;SDS011;7175;51.978;5.330;2022-12-18T10:12:52;28.07;;;25.97;;
14187;SDS011;7175;51.978;5.330;2022-12-18T10:15:31;28.40;;;26.30;;
14187;SDS011;7175;51.978;5.330;2022-12-18T10:18:07;26.77;;;24.77;;
14187;SDS011;7175;51.978;5.330;2022-12-18T10:20:48;25.20;;;23.30;;
14187;SDS011;7175;51.978;5.330;2022-12-18T10:23:21;25.90;;;23.90;;
14187;SDS011;7175;51.978;5.330;2022-12-18T10:25:58;24.90;;;23.00;;
14187;SDS011;7175;51.978;5.330;2022-12-18T10:28:30;25.00;;;23.10;;
14187;SDS011;7175;51.978;5.330;2022-12-18T10:31:00;24.30;;;22.40;;
14187;SDS011;7175;51.978;5.330;2022-12-18T10:33:30;24.53;;;22.63;;
14187;SDS011;7175;51.978;5.330;2022-12-18T10:36:00;23.57;;;21.77;;
14187;SDS011;7175;51.978;5.330;2022-12-18T10:38:31;25.77;;;23.77;;
14187;SDS011;7175;51.978;5.330;2022-12-18T10:41:01;24.50;;;22.60;;
14187;SDS011;7175;51.978;5.330;2022-12-18T10:43:31;24.17;;;22.27;;
14187;SDS011;7175;51.978;5.330;2022-12-18T10:46:02;23.43;;;21.63;;
14187;SDS011;7175;51.978;5.330;2022-12-18T10:48:49;23.20;;;21.40;;
14187;SDS011;7175;51.978;5.330;2022-12-18T10:51:22;22.80;;;21.10;;
14187;SDS011;7175;51.978;5.330;2022-12-18T10:53:57;23.33;;;21.53;;
14187;SDS011;7175;51.978;5.330;2022-12-18T10:56:30;22.47;;;20.77;;
14187;SDS011;7175;51.978;5.330;2022-12-18T10:59:01;22.87;;;21.07;;
14187;SDS011;7175;51.978;5.330;2022-12-18T11:01:44;21.77;;;20.07;;
14187;SDS011;7175;51.978;5.330;2022-12-18T11:04:19;24.77;;;22.87;;
14187;SDS011;7175;51.978;5.330;2022-12-18T11:06:54;21.37;;;19.77;;
14187;SDS011;7175;51.978;5.330;2022-12-18T11:09:26;20.83;;;19.23;;
14187;SDS011;7175;51.978;5.330;2022-12-18T11:11:56;21.03;;;19.43;;
14187;SDS011;7175;51.978;5.330;2022-12-18T11:14:27;21.07;;;19.47;;
14187;SDS011;7175;51.978;5.330;2022-12-18T11:16:57;20.77;;;19.17;;
14187;SDS011;7175;51.978;5.330;2022-12-18T11:19:52;20.27;;;18.77;;
14187;SDS011;7175;51.978;5.330;2022-12-18T11:22:23;22.50;;;20.80;;
14187;SDS011;7175;51.978;5.330;2022-12-18T11:24:57;20.00;;;18.50;;
14187;SDS011;7175;51.978;5.330;2022-12-18T11:27:48;20.00;;;18.50;;
14187;SDS011;7175;51.978;5.330;2022-12-18T11:30:23;20.60;;;19.00;;
14187;SDS011;7175;51.978;5.330;2022-12-18T11:33:04;21.37;;;19.40;;
14187;SDS011;7175;51.978;5.330;2022-12-18T11:35:36;20.30;;;18.80;;
14187;SDS011;7175;51.978;5.330;2022-12-18T11:38:12;19.87;;;18.37;;
14187;SDS011;7175;51.978;5.330;2022-12-18T11:40:51;21.47;;;19.73;;
14187;SDS011;7175;51.978;5.330;2022-12-18T11:43:26;19.90;;;18.40;;
14187;SDS011;7175;51.978;5.330;2022-12-18T11:45:59;19.67;;;18.17;;
14187;SDS011;7175;51.978;5.330;2022-12-18T11:48:32;19.93;;;18.43;;
14187;SDS011;7175;51.978;5.330;2022-12-18T11:51:05;20.37;;;18.77;;
14187;SDS011;7175;51.978;5.330;2022-12-18T11:53:41;19.83;;;18.33;;
14187;SDS011;7175;51.978;5.330;2022-12-18T11:56:16;19.70;;;18.20;;
14187;SDS011;7175;51.978;5.330;2022-12-18T11:58:57;20.00;;;18.50;;
14187;SDS011;7175;51.978;5.330;2022-12-18T12:01:39;19.70;;;18.20;;
14187;SDS011;7175;51.978;5.330;2022-12-18T12:04:38;19.90;;;18.40;;
14187;SDS011;7175;51.978;5.330;2022-12-18T12:07:23;19.50;;;18.00;;
14187;SDS011;7175;51.978;5.330;2022-12-18T12:10:07;19.50;;;18.00;;
14187;SDS011;7175;51.978;5.330;2022-12-18T12:12:51;19.47;;;17.97;;
14187;SDS011;7175;51.978;5.330;2022-12-18T12:15:30;19.50;;;18.00;;
14187;SDS011;7175;51.978;5.330;2022-12-18T12:18:08;19.50;;;18.00;;
14187;SDS011;7175;51.978;5.330;2022-12-18T12:20:49;19.43;;;17.93;;
14187;SDS011;7175;51.978;5.330;2022-12-18T12:23:26;20.23;;;18.63;;
14187;SDS011;7175;51.978;5.330;2022-12-18T12:26:06;20.47;;;18.97;;
14187;SDS011;7175;51.978;5.330;2022-12-18T12:31:43;19.97;;;18.47;;
14187;SDS011;7175;51.978;5.330;2022-12-18T12:34:23;22.37;;;20.63;;
14187;SDS011;7175;51.978;5.330;2022-12-18T12:37:00;19.40;;;17.90;;
14187;SDS011;7175;51.978;5.330;2022-12-18T12:39:41;19.37;;;17.87;;
14187;SDS011;7175;51.978;5.330;2022-12-18T12:42:13;19.60;;;18.10;;
14187;SDS011;7175;51.978;5.330;2022-12-18T12:45:13;19.80;;;18.30;;
14187;SDS011;7175;51.978;5.330;2022-12-18T12:47:46;19.60;;;18.10;;
14187;SDS011;7175;51.978;5.330;2022-12-18T12:50:18;19.00;;;17.60;;
14187;SDS011;7175;51.978;5.330;2022-12-18T12:52:50;19.07;;;17.67;;
14187;SDS011;7175;51.978;5.330;2022-12-18T12:55:21;18.90;;;17.50;;
14187;SDS011;7175;51.978;5.330;2022-12-18T12:57:55;19.23;;;17.83;;
14187;SDS011;7175;51.978;5.330;2022-12-18T13:00:34;20.30;;;18.80;;
14187;SDS011;7175;51.978;5.330;2022-12-18T13:03:09;19.23;;;17.83;;
14187;SDS011;7175;51.978;5.330;2022-12-18T13:05:45;19.90;;;18.50;;
14187;SDS011;7175;51.978;5.330;2022-12-18T13:08:25;20.23;;;18.83;;
14187;SDS011;7175;51.978;5.330;2022-12-18T13:11:00;19.17;;;17.77;;
14187;SDS011;7175;51.978;5.330;2022-12-18T13:13:53;20.33;;;18.13;;
14187;SDS011;7175;51.978;5.330;2022-12-18T13:16:25;18.60;;;17.30;;
14187;SDS011;7175;51.978;5.330;2022-12-18T13:18:55;20.20;;;18.70;;
14187;SDS011;7175;51.978;5.330;2022-12-18T13:21:26;18.90;;;17.50;;
14187;SDS011;7175;51.978;5.330;2022-12-18T13:23:56;18.90;;;17.60;;
14187;SDS011;7175;51.978;5.330;2022-12-18T13:26:42;18.30;;;17.00;;
14187;SDS011;7175;51.978;5.330;2022-12-18T13:29:11;19.30;;;17.90;;
14187;SDS011;7175;51.978;5.330;2022-12-18T13:32:02;18.53;;;17.23;;
14187;SDS011;7175;51.978;5.330;2022-12-18T13:34:48;19.90;;;18.40;;
14187;SDS011;7175;51.978;5.330;2022-12-18T13:37:40;19.77;;;18.20;;
14187;SDS011;7175;51.978;5.330;2022-12-18T13:43:29;18.60;;;17.30;;
14187;SDS011;7175;51.978;5.330;2022-12-18T13:46:17;18.30;;;17.00;;
14187;SDS011;7175;51.978;5.330;2022-12-18T13:48:52;18.63;;;17.33;;
14187;SDS011;7175;51.978;5.330;2022-12-18T13:51:24;18.80;;;17.50;;
14187;SDS011;7175;51.978;5.330;2022-12-18T13:53:54;19.13;;;17.83;;
14187;SDS011;7175;51.978;5.330;2022-12-18T13:56:26;18.43;;;17.13;;
14187;SDS011;7175;51.978;5.330;2022-12-18T14:01:52;18.83;;;17.53;;
14187;SDS011;7175;51.978;5.330;2022-12-18T14:04:25;18.40;;;17.10;;
14187;SDS011;7175;51.978;5.330;2022-12-18T14:06:56;19.30;;;18.00;;
14187;SDS011;7175;51.978;5.330;2022-12-18T14:09:29;19.03;;;17.73;;
14187;SDS011;7175;51.978;5.330;2022-12-18T14:11:59;18.90;;;17.60;;
14187;SDS011;7175;51.978;5.330;2022-12-18T14:14:47;19.37;;;18.00;;
14187;SDS011;7175;51.978;5.330;2022-12-18T14:17:20;18.60;;;17.30;;
14187;SDS011;7175;51.978;5.330;2022-12-18T14:19:51;19.20;;;17.80;;
14187;SDS011;7175;51.978;5.330;2022-12-18T14:22:20;19.30;;;18.00;;
14187;SDS011;7175;51.978;5.330;2022-12-18T14:25:04;19.30;;;18.00;;
14187;SDS011;7175;51.978;5.330;2022-12-18T14:27:42;20.40;;;19.00;;
14187;SDS011;7175;51.978;5.330;2022-12-18T14:30:27;19.10;;;17.80;;
14187;SDS011;7175;51.978;5.330;2022-12-18T14:33:02;19.10;;;17.80;;
14187;SDS011;7175;51.978;5.330;2022-12-18T14:35:33;18.60;;;17.30;;
14187;SDS011;7175;51.978;5.330;2022-12-18T14:38:23;18.97;;;17.67;;
14187;SDS011;7175;51.978;5.330;2022-12-18T14:40:57;18.70;;;17.40;;
14187;SDS011;7175;51.978;5.330;2022-12-18T14:43:27;19.07;;;17.77;;
14187;SDS011;7175;51.978;5.330;2022-12-18T14:45:56;18.20;;;17.00;;
14187;SDS011;7175;51.978;5.330;2022-12-18T14:48:38;20.10;;;18.70;;
14187;SDS011;7175;51.978;5.330;2022-12-18T14:51:16;18.47;;;17.27;;
14187;SDS011;7175;51.978;5.330;2022-12-18T14:53:47;18.50;;;17.30;;
14187;SDS011;7175;51.978;5.330;2022-12-18T14:56:21;19.60;;;18.30;;
14187;SDS011;7175;51.978;5.330;2022-12-18T14:58:53;19.00;;;17.80;;
14187;SDS011;7175;51.978;5.330;2022-12-18T15:01:24;18.47;;;17.23;;
14187;SDS011;7175;51.978;5.330;2022-12-18T15:03:55;20.23;;;18.83;;
14187;SDS011;7175;51.978;5.330;2022-12-18T15:06:33;18.90;;;17.60;;
14187;SDS011;7175;51.978;5.330;2022-12-18T15:09:04;20.00;;;18.30;;